Time;durP1;ratioP1;P1;durP2;ratioP2;P2;SDS_P1;SDS_P2;PMS_P1;PMS_P2;Temp;Humidity;BMP_temperature;BMP_pressure;BME280_temperature;BME280_humidity;BME280_pressure;Samples;Min_cycle;Max_cycle;Signal;HPM_P1;HPM_P2
2022/02/22 00:01:16;;;;;;;;;;;;;;;29.85;21.39;99679.56;5074220;28;893;-41
2022/02/22 00:03:42;;;;;;;;;;;;;;;29.74;21.15;99684.72;5075363;28;1941;-47
2022/02/22 00:06:07;;;;;;;;;;;;;;;29.56;21.27;99672.78;5075102;28;880;-42
2022/02/22 00:08:32;;;;;;;;;;;;;;;29.63;21.45;99678.16;5075636;28;722;-43
2022/02/22 00:10:58;;;;;;;;;;;;;;;29.94;21.38;99679.06;5074979;28;1011;-41
2022/02/22 00:13:24;;;;;;;;;;;;;;;29.96;21.55;99676.13;5074933;28;825;-37
2022/02/22 00:15:50;;;;;;;;;;;;;;;30.23;21.38;99673.03;5075008;28;894;-42
2022/02/22 00:18:15;;;;;;;;;;;;;;;29.68;21.59;99664.75;5075185;28;797;-39
2022/02/22 00:20:41;;;;;;;;;;;;;;;29.74;21.52;99651.34;5077170;28;909;-41
2022/02/22 00:23:07;;;;;;;;;;;;;;;29.95;21.39;99652.75;5079089;28;1959;-45
2022/02/22 00:25:32;;;;;;;;;;;;;;;29.86;21.57;99652.25;5077146;28;805;-42
2022/02/22 00:27:58;;;;;;;;;;;;;;;30.14;21.39;99650.84;5077291;28;825;-46
2022/02/22 00:30:23;;;;;;;;;;;;;;;29.81;21.51;99646.69;5078627;28;887;-43
2022/02/22 00:32:48;;;;;;;;;;;;;;;29.75;21.42;99640.28;5078473;28;1103;-42
2022/02/22 00:35:14;;;;;;;;;;;;;;;29.76;21.71;99633.78;5079245;28;814;-43
2022/02/22 00:37:39;;;;;;;;;;;;;;;30.05;21.57;99634.06;5079034;28;892;-41
2022/02/22 00:40:05;;;;;;;;;;;;;;;30.28;21.31;99629.78;5077889;28;816;-43
2022/02/22 00:42:30;;;;;;;;;;;;;;;29.81;21.56;99623.09;5078483;28;1952;-42
2022/02/22 00:44:55;;;;;;;;;;;;;;;29.84;21.52;99621.84;5078490;28;778;-42
2022/02/22 00:47:20;;;;;;;;;;;;;;;29.72;21.53;99610.94;5074423;28;957;-44
2022/02/22 00:49:46;;;;;;;;;;;;;;;29.95;21.92;99609.38;5078627;28;801;-45
2022/02/22 00:52:11;;;;;;;;;;;;;;;29.97;21.77;99607.25;5075952;28;910;-43
2022/02/22 00:54:36;;;;;;;;;;;;;;;30.46;21.32;99605.53;5078231;28;896;-41
2022/02/22 00:57:02;;;;;;;;;;;;;;;29.87;21.60;99598.84;5078065;28;869;-41
2022/02/22 00:59:27;;;;;;;;;;;;;;;29.79;21.58;99600.84;5078347;28;785;-42
2022/02/22 01:01:53;;;;;;;;;;;;;;;29.92;21.76;99607.13;5077922;28;1963;-43
2022/02/22 01:04:18;;;;;;;;;;;;;;;29.93;21.84;99601.47;5077845;28;816;-42
2022/02/22 01:06:43;;;;;;;;;;;;;;;30.21;21.65;99601.13;5078306;28;811;-41
2022/02/22 01:09:08;;;;;;;;;;;;;;;29.94;21.61;99597.72;5077779;28;728;-42
2022/02/22 01:11:34;;;;;;;;;;;;;;;29.88;21.73;99601.31;5078156;28;1035;-40
2022/02/22 01:13:59;;;;;;;;;;;;;;;29.96;21.89;99596.66;5078013;28;841;-43
2022/02/22 01:16:25;;;;;;;;;;;;;;;29.98;21.97;99598.06;5072103;28;1081;-41
2022/02/22 01:18:50;;;;;;;;;;;;;;;30.31;21.79;99593.25;5076726;28;890;-41
2022/02/22 01:21:16;;;;;;;;;;;;;;;29.86;21.69;99595.31;5078024;28;745;-42
2022/02/22 01:23:41;;;;;;;;;;;;;;;29.84;21.66;99600.16;5077884;28;1909;-42
2022/02/22 01:26:06;;;;;;;;;;;;;;;29.98;21.77;99600.75;5077959;28;885;-42
2022/02/22 01:28:31;;;;;;;;;;;;;;;30.04;21.60;99596.31;5078007;28;959;-41
2022/02/22 01:30:57;;;;;;;;;;;;;;;29.55;21.85;99600.69;5073912;28;861;-42
2022/02/22 01:33:22;;;;;;;;;;;;;;;29.72;21.06;99605.50;5077709;28;1293;-42
2022/02/22 01:35:47;;;;;;;;;;;;;;;29.65;21.23;99597.47;5077743;28;816;-40
2022/02/22 01:38:13;;;;;;;;;;;;;;;29.64;21.16;99605.81;5077616;28;821;-42
2022/02/22 01:40:38;;;;;;;;;;;;;;;29.94;21.24;99603.13;5077157;28;861;-38
2022/02/22 01:43:03;;;;;;;;;;;;;;;29.89;21.15;99602.16;5075116;28;1910;-42
2022/02/22 01:45:29;;;;;;;;;;;;;;;30.29;20.81;99600.78;5076363;28;843;-41
2022/02/22 01:47:54;;;;;;;;;;;;;;;29.73;21.08;99596.31;5077391;28;935;-40
2022/02/22 01:50:19;;;;;;;;;;;;;;;29.20;21.64;99593.16;5077107;28;838;-41
2022/02/22 01:52:45;;;;;;;;;;;;;;;29.77;21.09;99600.22;5077478;28;745;-42
2022/02/22 01:55:10;;;;;;;;;;;;;;;30.22;20.69;99602.75;5072000;28;884;-39
2022/02/22 01:57:35;;;;;;;;;;;;;;;30.04;20.50;99594.44;5076918;28;869;-43
2022/02/22 02:00:01;;;;;;;;;;;;;;;29.68;20.96;99586.16;5076780;28;813;-40
2022/02/22 02:02:27;;;;;;;;;;;;;;;29.63;21.23;99586.03;5076531;28;1980;-40
2022/02/22 02:04:52;;;;;;;;;;;;;;;30.01;20.69;99584.03;5077075;28;814;-42
2022/02/22 02:07:17;;;;;;;;;;;;;;;30.27;20.30;99583.91;5077326;28;819;-39
2022/02/22 02:09:43;;;;;;;;;;;;;;;29.93;20.67;99571.63;5075096;28;859;-40
2022/02/22 02:12:08;;;;;;;;;;;;;;;29.70;20.95;99572.38;5077094;28;980;-43
2022/02/22 02:14:33;;;;;;;;;;;;;;;29.58;21.06;99566.88;5074997;28;849;-40
2022/02/22 02:16:59;;;;;;;;;;;;;;;29.94;20.87;99575.19;5070170;28;892;-42
2022/02/22 02:19:24;;;;;;;;;;;;;;;30.16;20.75;99566.53;5076878;28;772;-41
2022/02/22 02:21:50;;;;;;;;;;;;;;;29.99;20.93;99572.63;5071467;28;1972;-42
2022/02/22 02:24:16;;;;;;;;;;;;;;;29.75;21.29;99564.41;5076562;28;821;-40
2022/02/22 02:26:42;;;;;;;;;;;;;;;29.78;21.24;99565.84;5077321;28;825;-42
2022/02/22 02:29:08;;;;;;;;;;;;;;;30.01;21.01;99553.41;5076987;28;757;-37
2022/02/22 02:31:34;;;;;;;;;;;;;;;30.30;20.92;99561.72;5074090;28;839;-40
2022/02/22 02:34:00;;;;;;;;;;;;;;;30.25;20.90;99556.16;5075420;28;797;-41
2022/02/22 02:36:26;;;;;;;;;;;;;;;29.91;21.09;99559.38;5076348;28;938;-42
2022/02/22 02:38:51;;;;;;;;;;;;;;;29.91;21.25;99553.97;5076416;28;777;-42
2022/02/22 02:41:16;;;;;;;;;;;;;;;30.01;21.15;99558.81;5076342;28;808;-44
2022/02/22 02:43:42;;;;;;;;;;;;;;;30.26;21.01;99563.28;5075553;28;1975;-41
2022/02/22 02:46:07;;;;;;;;;;;;;;;30.23;21.27;99561.84;5075713;28;883;-41
2022/02/22 02:48:32;;;;;;;;;;;;;;;29.96;21.75;99554.09;5076542;28;806;-43
2022/02/22 02:50:58;;;;;;;;;;;;;;;29.90;21.36;99555.00;5075814;28;864;-42
2022/02/22 02:53:23;;;;;;;;;;;;;;;30.04;21.34;99561.06;5075938;28;837;-43
2022/02/22 02:55:48;;;;;;;;;;;;;;;30.22;21.16;99560.19;5076443;28;916;-42
2022/02/22 02:58:13;;;;;;;;;;;;;;;30.33;21.13;99555.84;5076369;28;940;-41
2022/02/22 03:00:39;;;;;;;;;;;;;;;29.97;21.55;99561.16;5074120;28;881;-41
2022/02/22 03:03:04;;;;;;;;;;;;;;;29.99;21.58;99560.94;5076035;28;1972;-41
2022/02/22 03:05:29;;;;;;;;;;;;;;;30.03;21.47;99559.44;5075740;28;1142;-42
2022/02/22 03:07:58;;;;;;;;;;;;;;;30.23;21.38;99558.31;5075805;28;857;-42
2022/02/22 03:10:24;;;;;;;;;;;;;;;30.36;21.21;99557.25;5075985;28;968;-42
2022/02/22 03:12:49;;;;;;;;;;;;;;;29.99;21.67;99552.78;5071686;28;813;-45
2022/02/22 03:15:15;;;;;;;;;;;;;;;29.96;21.49;99553.25;5075533;28;948;-42
2022/02/22 03:17:40;;;;;;;;;;;;;;;30.08;21.73;99556.00;5073385;28;778;-44
2022/02/22 03:20:05;;;;;;;;;;;;;;;30.29;21.40;99550.06;5076157;28;774;-42
2022/02/22 03:22:31;;;;;;;;;;;;;;;30.29;21.56;99550.06;5075769;28;1894;-43
2022/02/22 03:24:56;;;;;;;;;;;;;;;29.99;21.65;99544.66;5075385;28;742;-41
2022/02/22 03:27:21;;;;;;;;;;;;;;;29.82;21.72;99553.47;5075695;28;912;-42
2022/02/22 03:29:47;;;;;;;;;;;;;;;29.89;21.72;99556.06;5075779;28;803;-41
2022/02/22 03:32:12;;;;;;;;;;;;;;;29.99;21.61;99556.34;5074019;28;1229;-40
2022/02/22 03:34:37;;;;;;;;;;;;;;;30.05;21.56;99552.69;5076191;28;793;-41
2022/02/22 03:37:03;;;;;;;;;;;;;;;30.04;21.79;99556.47;5071510;28;805;-41
2022/02/22 03:39:28;;;;;;;;;;;;;;;29.81;21.81;99558.03;5075899;28;788;-40
2022/02/22 03:41:53;;;;;;;;;;;;;;;29.81;21.70;99554.53;5075732;28;1981;-41
2022/02/22 03:44:18;;;;;;;;;;;;;;;29.98;21.86;99548.44;5075499;28;926;-42
2022/02/22 03:46:44;;;;;;;;;;;;;;;30.21;21.69;99555.84;5068288;28;918;-41
2022/02/22 03:49:09;;;;;;;;;;;;;;;30.26;21.71;99552.41;5075572;28;873;-40
2022/02/22 03:51:34;;;;;;;;;;;;;;;29.94;21.67;99557.03;5074822;28;827;-40
2022/02/22 03:54:00;;;;;;;;;;;;;;;29.89;21.95;99551.50;5076438;28;780;-39
2022/02/22 03:56:25;;;;;;;;;;;;;;;29.96;21.84;99556.81;5079476;28;1518;-42
2022/02/22 03:58:51;;;;;;;;;;;;;;;30.25;21.72;99553.47;5079409;28;943;-44
2022/02/22 04:01:16;;;;;;;;;;;;;;;30.26;21.76;99538.84;5079566;28;770;-42
2022/02/22 04:03:41;;;;;;;;;;;;;;;30.05;21.87;99539.13;5075511;28;1901;-40
2022/02/22 04:06:07;;;;;;;;;;;;;;;29.24;23.08;99542.94;5079531;28;864;-42
2022/02/22 04:08:32;;;;;;;;;;;;;;;29.84;22.26;99535.09;5079209;28;927;-41
2022/02/22 04:10:57;;;;;;;;;;;;;;;29.99;22.25;99531.94;5079223;28;1035;-43
2022/02/22 04:13:23;;;;;;;;;;;;;;;30.35;22.00;99539.31;5079083;28;1285;-43
2022/02/22 04:15:48;;;;;;;;;;;;;;;29.98;22.58;99540.31;5073681;28;1202;-44
2022/02/22 04:18:13;;;;;;;;;;;;;;;29.24;23.20;99544.81;5079379;28;809;-42
2022/02/22 04:20:38;;;;;;;;;;;;;;;29.94;22.45;99546.19;5079052;28;876;-40
2022/02/22 04:23:04;;;;;;;;;;;;;;;30.31;22.24;99541.69;5078465;28;1902;-45
2022/02/22 04:25:29;;;;;;;;;;;;;;;30.35;22.18;99539.31;5079419;28;925;-42
2022/02/22 04:27:54;;;;;;;;;;;;;;;30.11;22.82;99537.41;5075480;28;847;-44
2022/02/22 04:30:20;;;;;;;;;;;;;;;30.06;22.82;99534.56;5078335;28;824;-43
2022/02/22 04:32:46;;;;;;;;;;;;;;;29.76;22.74;99535.41;5078458;28;1346;-41
2022/02/22 04:35:11;;;;;;;;;;;;;;;30.13;22.41;99548.81;5078797;28;804;-42
2022/02/22 04:37:37;;;;;;;;;;;;;;;30.25;22.28;99556.16;5079105;28;839;-42
2022/02/22 04:40:03;;;;;;;;;;;;;;;30.22;22.27;99560.19;5079091;28;878;-47
2022/02/22 04:42:28;;;;;;;;;;;;;;;29.62;22.87;99561.88;5071764;28;1973;-43
2022/02/22 04:44:53;;;;;;;;;;;;;;;29.78;22.81;99561.22;5078198;28;942;-39
2022/02/22 04:47:19;;;;;;;;;;;;;;;29.80;22.81;99550.16;5073337;28;927;-43
2022/02/22 04:49:44;;;;;;;;;;;;;;;30.22;22.23;99560.19;5078260;28;780;-42
2022/02/22 04:52:10;;;;;;;;;;;;;;;30.24;22.17;99562.66;5078308;28;826;-41
2022/02/22 04:54:35;;;;;;;;;;;;;;;29.97;22.58;99577.44;5078056;28;860;-40
2022/02/22 04:57:00;;;;;;;;;;;;;;;29.74;21.40;99570.88;5078027;28;868;-39
2022/02/22 04:59:26;;;;;;;;;;;;;;;27.39;21.31;99565.31;5078459;28;754;-42
2022/02/22 05:01:51;;;;;;;;;;;;;;;25.93;22.06;99570.31;5075429;28;1978;-46
2022/02/22 05:04:17;;;;;;;;;;;;;;;25.03;22.82;99578.22;5077989;28;915;-42
2022/02/22 05:06:42;;;;;;;;;;;;;;;24.75;23.37;99584.41;5076995;28;822;-38
2022/02/22 05:09:08;;;;;;;;;;;;;;;24.57;23.49;99593.78;5078139;28;939;-40
2022/02/22 05:11:34;;;;;;;;;;;;;;;24.34;23.85;99594.81;5078241;28;1043;-38
2022/02/22 05:13:59;;;;;;;;;;;;;;;24.02;24.06;99588.06;5077933;28;814;-39
2022/02/22 05:16:25;;;;;;;;;;;;;;;23.94;24.20;99597.09;5077162;28;1126;-40
2022/02/22 05:18:50;;;;;;;;;;;;;;;24.20;23.90;99610.00;5065393;28;1515;-40
2022/02/22 05:21:15;;;;;;;;;;;;;;;25.50;22.78;99614.47;5078553;28;805;-39
2022/02/22 05:23:41;;;;;;;;;;;;;;;25.85;22.31;99613.63;5077373;28;1894;-43
2022/02/22 05:26:09;;;;;;;;;;;;;;;26.07;22.07;99614.31;5078074;28;742;-42
2022/02/22 05:28:34;;;;;;;;;;;;;;;26.32;21.45;99610.22;5071094;28;1056;-40
2022/02/22 05:30:59;;;;;;;;;;;;;;;25.78;21.70;99616.28;5071876;28;1256;-39
2022/02/22 05:33:25;;;;;;;;;;;;;;;25.28;22.30;99615.41;5068327;28;1285;-42
2022/02/22 05:35:50;;;;;;;;;;;;;;;25.22;22.73;99615.38;5077165;28;1047;-41
2022/02/22 05:38:16;;;;;;;;;;;;;;;25.26;23.00;99619.31;5073596;28;1067;-38
2022/02/22 05:40:41;;;;;;;;;;;;;;;25.15;23.22;99615.34;5077527;28;868;-42
2022/02/22 05:43:06;;;;;;;;;;;;;;;25.26;23.36;99611.25;5077134;28;1972;-39
2022/02/22 05:45:32;;;;;;;;;;;;;;;25.75;23.08;99622.09;5074277;28;960;-50
2022/02/22 05:47:57;;;;;;;;;;;;;;;25.91;22.77;99615.50;5077173;28;1249;-40
2022/02/22 05:50:22;;;;;;;;;;;;;;;25.99;23.34;99631.47;5077566;28;1047;-48
2022/02/22 05:52:47;;;;;;;;;;;;;;;25.87;23.43;99628.56;5076776;28;1261;-45
2022/02/22 05:55:13;;;;;;;;;;;;;;;26.00;23.33;99630.47;5070470;28;1234;-41
2022/02/22 05:57:38;;;;;;;;;;;;;;;26.12;22.86;99632.56;5071602;28;1040;-47
2022/02/22 06:00:04;;;;;;;;;;;;;;;25.87;23.43;99620.47;5077388;28;843;-43
2022/02/22 06:02:29;;;;;;;;;;;;;;;25.54;24.63;99616.56;5076928;28;1959;-41
2022/02/22 06:04:55;;;;;;;;;;;;;;;24.54;26.11;99615.66;5076679;28;809;-47
2022/02/22 06:07:20;;;;;;;;;;;;;;;24.85;25.56;99615.50;5077026;28;754;-46
2022/02/22 06:09:46;;;;;;;;;;;;;;;25.52;24.68;99607.88;5074668;28;837;-47
2022/02/22 06:12:11;;;;;;;;;;;;;;;25.80;24.22;99625.84;5077013;28;1166;-41
2022/02/22 06:14:36;;;;;;;;;;;;;;;26.04;24.01;99623.63;5076560;28;821;-44
2022/02/22 06:17:02;;;;;;;;;;;;;;;25.81;24.48;99634.72;5074564;28;967;-44
2022/02/22 06:19:27;;;;;;;;;;;;;;;24.85;25.75;99639.72;5076194;28;903;-46
2022/02/22 06:21:52;;;;;;;;;;;;;;;24.54;26.50;99639.88;5076865;28;1894;-44
2022/02/22 06:24:18;;;;;;;;;;;;;;;24.86;25.59;99641.41;5076066;28;1436;-42
2022/02/22 06:26:43;;;;;;;;;;;;;;;25.48;25.05;99643.47;5076148;28;869;-46
2022/02/22 06:29:09;;;;;;;;;;;;;;;25.30;25.02;99631.38;5076886;28;773;-42
2022/02/22 06:31:34;;;;;;;;;;;;;;;25.19;24.83;99622.00;5076379;28;956;-42
2022/02/22 06:33:59;;;;;;;;;;;;;;;25.15;24.85;99628.78;5076125;28;916;-41
2022/02/22 06:36:25;;;;;;;;;;;;;;;25.28;25.24;99625.34;5076082;28;891;-41
2022/02/22 06:38:52;;;;;;;;;;;;;;;25.80;24.54;99622.31;5076393;28;774;-42
2022/02/22 06:41:17;;;;;;;;;;;;;;;25.68;25.05;99622.06;5075754;28;1544;-44
2022/02/22 06:43:42;;;;;;;;;;;;;;;25.62;25.12;99614.75;5076773;28;1977;-44
2022/02/22 06:46:07;;;;;;;;;;;;;;;25.98;26.09;99616.34;5076080;28;865;-44
2022/02/22 06:48:33;;;;;;;;;;;;;;;26.07;25.56;99608.09;5070849;28;816;-36
2022/02/22 06:50:58;;;;;;;;;;;;;;;26.37;25.59;99610.44;5076246;28;821;-36
2022/02/22 06:53:23;;;;;;;;;;;;;;;26.55;24.45;99612.53;5075975;28;932;-35
2022/02/22 06:55:49;;;;;;;;;;;;;;;26.76;24.11;99611.50;5076248;28;833;-34
2022/02/22 06:58:14;;;;;;;;;;;;;;;26.38;24.58;99604.00;5075800;28;889;-33
2022/02/22 07:00:43;;;;;;;;;;;;;;;26.05;25.67;99613.69;5087424;28;1380;-38
2022/02/22 07:03:09;;;;;;;;;;;;;;;25.76;26.98;99612.97;5067185;28;1985;-49
2022/02/22 07:05:34;;;;;;;;;;;;;;;25.57;27.28;99618.06;5073694;28;1460;-43
2022/02/22 07:07:59;;;;;;;;;;;;;;;25.96;27.83;99613.03;5075656;28;1483;-39
2022/02/22 07:10:25;;;;;;;;;;;;;;;26.25;27.55;99613.72;5075600;28;1447;-36
2022/02/22 07:12:50;;;;;;;;;;;;;;;26.39;27.33;99609.19;5070121;28;922;-37
2022/02/22 07:15:16;;;;;;;;;;;;;;;26.33;26.63;99609.19;5074474;28;1301;-34
2022/02/22 07:17:44;;;;;;;;;;;;;;;26.66;26.71;99605.69;5071960;28;1268;-38
2022/02/22 07:20:10;;;;;;;;;;;;;;;27.01;26.52;99607.31;5072142;28;1312;-35
2022/02/22 07:22:36;;;;;;;;;;;;;;;27.04;25.92;99606.94;5069402;28;1890;-49
2022/02/22 07:25:01;;;;;;;;;;;;;;;26.70;25.78;99601.53;5076044;28;959;-48
2022/02/22 07:27:26;;;;;;;;;;;;;;;26.78;26.17;99603.19;5074973;28;1340;-46
2022/02/22 07:29:51;;;;;;;;;;;;;;;26.73;26.42;99598.44;5069255;28;1324;-48
2022/02/22 07:32:17;;;;;;;;;;;;;;;26.87;26.22;99598.41;5078815;28;1384;-48
2022/02/22 07:34:43;;;;;;;;;;;;;;;26.98;26.11;99596.94;5081874;28;1570;-47
2022/02/22 07:37:08;;;;;;;;;;;;;;;26.75;26.16;99606.31;5082088;28;1288;-48
2022/02/22 07:39:33;;;;;;;;;;;;;;;26.89;25.71;99618.75;5082302;28;857;-44
2022/02/22 07:41:59;;;;;;;;;;;;;;;26.85;25.69;99622.06;5078924;28;1914;-49
2022/02/22 07:44:25;;;;;;;;;;;;;;;26.70;25.54;99625.81;5082016;28;1527;-37
2022/02/22 07:46:50;;;;;;;;;;;;;;;26.82;25.78;99630.59;5079695;28;1239;-39
2022/02/22 07:49:16;;;;;;;;;;;;;;;26.57;26.05;99640.13;5081789;28;1602;-40
2022/02/22 07:51:41;;;;;;;;;;;;;;;26.30;25.88;99637.38;5080957;28;889;-39
2022/02/22 07:54:07;;;;;;;;;;;;;;;26.16;26.30;99633.81;5082302;28;929;-40
2022/02/22 07:56:32;;;;;;;;;;;;;;;26.09;26.40;99630.28;5082326;28;817;-40
2022/02/22 07:58:58;;;;;;;;;;;;;;;26.11;26.10;99631.72;5081763;28;802;-39
2022/02/22 08:01:23;;;;;;;;;;;;;;;26.21;26.19;99636.72;5082089;28;1445;-39
2022/02/22 08:03:48;;;;;;;;;;;;;;;26.23;25.89;99636.53;5097416;28;1910;-39
2022/02/22 08:06:14;;;;;;;;;;;;;;;26.24;25.61;99636.31;5078367;28;876;-39
2022/02/22 08:08:39;;;;;;;;;;;;;;;26.28;25.59;99629.50;5082318;28;829;-39
2022/02/22 08:11:05;;;;;;;;;;;;;;;26.31;25.66;99635.50;5082248;28;862;-38
2022/02/22 08:13:30;;;;;;;;;;;;;;;26.44;26.10;99640.97;5082074;28;986;-36
2022/02/22 08:15:55;;;;;;;;;;;;;;;26.23;26.20;99650.84;5081895;28;864;-36
2022/02/22 08:18:21;;;;;;;;;;;;;;;26.21;26.16;99652.91;5081440;28;852;-36
2022/02/22 08:20:46;;;;;;;;;;;;;;;26.06;25.97;99652.25;5082538;28;809;-36
2022/02/22 08:23:11;;;;;;;;;;;;;;;26.35;25.85;99655.66;5082402;28;1974;-37
2022/02/22 08:25:37;;;;;;;;;;;;;;;26.43;25.93;99654.63;5082138;28;915;-37
2022/02/22 08:28:07;;;;;;;;;;;;;;;26.19;25.81;99659.53;5082196;28;806;-37
2022/02/22 08:30:33;;;;;;;;;;;;;;;26.13;26.21;99661.16;5074020;28;923;-36
2022/02/22 08:32:59;;;;;;;;;;;;;;;26.12;26.06;99664.91;5080608;28;1111;-37
2022/02/22 08:35:24;;;;;;;;;;;;;;;26.41;25.74;99660.22;5081006;28;830;-36
2022/02/22 08:37:53;;;;;;;;;;;;;;;26.42;25.54;99664.59;5081778;28;904;-36
2022/02/22 08:40:18;;;;;;;;;;;;;;;26.46;25.62;99671.22;5079638;28;840;-36
2022/02/22 08:42:43;;;;;;;;;;;;;;;26.44;25.56;99670.63;5076820;28;1963;-39
2022/02/22 08:45:09;;;;;;;;;;;;;;;26.42;25.80;99672.69;5077557;28;1275;-39
2022/02/22 08:47:34;;;;;;;;;;;;;;;26.48;26.01;99671.88;5076274;28;1139;-39
2022/02/22 08:49:59;;;;;;;;;;;;;;;26.19;26.08;99681.09;5078013;28;892;-39
2022/02/22 08:52:29;;;;;;;;;;;;;;;25.88;26.53;99676.00;5078855;28;808;-39
2022/02/22 08:54:55;;;;;;;;;;;;;;;26.10;26.13;99680.44;5077788;28;782;-39
2022/02/22 08:57:20;;;;;;;;;;;;;;;26.24;25.90;99678.63;5075163;28;690;-39
2022/02/22 08:59:45;;;;;;;;;;;;;;;26.36;25.68;99679.72;5078760;28;792;-39
2022/02/22 09:02:11;;;;;;;;;;;;;;;26.12;26.16;99679.22;5077980;28;1993;-39
2022/02/22 09:04:36;;;;;;;;;;;;;;;26.25;26.07;99678.44;5076527;28;1195;-39
2022/02/22 09:07:01;;;;;;;;;;;;;;;26.19;25.90;99678.41;5078088;28;782;-39
2022/02/22 09:09:26;;;;;;;;;;;;;;;26.19;25.87;99681.09;5077013;28;827;-39
2022/02/22 09:11:52;;;;;;;;;;;;;;;26.15;26.10;99688.75;5078427;28;781;-39
2022/02/22 09:14:17;;;;;;;;;;;;;;;26.18;26.29;99691.03;5077109;28;1558;-39
2022/02/22 09:16:42;;;;;;;;;;;;;;;26.16;26.53;99687.72;5076195;28;1574;-39
2022/02/22 09:19:08;;;;;;;;;;;;;;;26.12;26.67;99690.00;5075901;28;1256;-40
2022/02/22 09:21:33;;;;;;;;;;;;;;;26.32;27.71;99696.47;5077357;28;1543;-38
2022/02/22 09:23:58;;;;;;;;;;;;;;;26.63;26.28;99689.72;5077639;28;1897;-40
2022/02/22 09:26:24;;;;;;;;;;;;;;;26.65;26.25;99693.88;5077465;28;1428;-41
2022/02/22 09:28:49;;;;;;;;;;;;;;;26.85;26.87;99701.16;5077013;28;1448;-40
2022/02/22 09:31:14;;;;;;;;;;;;;;;26.90;26.26;99698.69;5074842;28;1277;-40
2022/02/22 09:33:40;;;;;;;;;;;;;;;26.90;26.15;99703.22;5075523;28;1448;-45
2022/02/22 09:36:05;;;;;;;;;;;;;;;26.94;25.93;99696.41;5077051;28;869;-42
2022/02/22 09:38:30;;;;;;;;;;;;;;;26.77;27.06;99712.16;5071869;28;1531;-39
2022/02/22 09:40:59;;;;;;;;;;;;;;;26.81;27.23;99713.38;5073417;28;1330;-39
2022/02/22 09:43:24;;;;;;;;;;;;;;;24.69;29.19;99703.53;5072843;28;1905;-45
2022/02/22 09:45:50;;;;;;;;;;;;;;;23.57;30.69;99702.56;5074393;28;922;-44
2022/02/22 09:48:15;;;;;;;;;;;;;;;23.38;31.26;99697.72;5071572;28;881;-45
2022/02/22 09:50:40;;;;;;;;;;;;;;;22.98;31.74;99696.91;5077068;28;781;-46
2022/02/22 09:53:06;;;;;;;;;;;;;;;23.30;30.88;99691.44;5076671;28;804;-44
2022/02/22 09:55:31;;;;;;;;;;;;;;;23.26;30.91;99694.63;5075761;28;989;-43
2022/02/22 09:57:56;;;;;;;;;;;;;;;23.47;30.63;99684.06;5075787;28;1113;-43
2022/02/22 10:00:22;;;;;;;;;;;;;;;24.38;29.39;99675.91;5076050;28;893;-39
2022/02/22 10:02:47;;;;;;;;;;;;;;;25.09;28.16;99676.13;5077071;28;1965;-42
2022/02/22 10:05:16;;;;;;;;;;;;;;;25.33;27.72;99668.66;5077286;28;869;-43
2022/02/22 10:07:51;;;;;;;;;;;;;;;25.46;27.29;99667.09;5077312;28;849;-37
2022/02/22 10:10:17;;;;;;;;;;;;;;;25.80;26.81;99660.88;5076744;28;897;-37
2022/02/22 10:12:42;;;;;;;;;;;;;;;25.86;26.66;99669.19;5070423;28;1365;-33
2022/02/22 10:15:07;;;;;;;;;;;;;;;25.82;26.70;99670.59;5073897;28;1467;-33
2022/02/22 10:17:40;;;;;;;;;;;;;;;25.84;26.98;99665.84;5067575;28;1001;-36
2022/02/22 10:20:06;;;;;;;;;;;;;;;25.86;26.51;99664.59;5076697;28;888;-34
2022/02/22 10:22:31;;;;;;;;;;;;;;;26.09;26.20;99663.44;5077002;28;1964;-35
2022/02/22 10:25:09;;;;;;;;;;;;;;;25.75;26.42;99655.25;5076306;28;865;-36
2022/02/22 10:27:47;;;;;;;;;;;;;;;25.79;26.20;99656.50;5077027;28;813;-35
2022/02/22 10:30:24;;;;;;;;;;;;;;;25.87;26.29;99649.28;5076436;28;871;-38
2022/02/22 10:32:49;;;;;;;;;;;;;;;25.87;26.27;99644.72;5074596;28;1051;-35
2022/02/22 10:35:15;;;;;;;;;;;;;;;26.17;26.09;99640.88;5076783;28;785;-41
2022/02/22 10:37:40;;;;;;;;;;;;;;;25.96;26.53;99636.47;5075130;28;1204;-42
2022/02/22 10:40:06;;;;;;;;;;;;;;;25.84;26.15;99637.03;5076431;28;1089;-42
2022/02/22 10:42:35;;;;;;;;;;;;;;;25.92;26.05;99644.13;5076638;28;1909;-42
2022/02/22 10:45:07;;;;;;;;;;;;;;;25.80;26.35;99635.78;5076455;28;814;-41
2022/02/22 10:47:38;;;;;;;;;;;;;;;25.75;26.54;99641.78;5073899;28;869;-42
2022/02/22 10:50:03;;;;;;;;;;;;;;;25.65;26.80;99638.63;5075644;28;920;-41
2022/02/22 10:52:29;;;;;;;;;;;;;;;25.72;26.47;99642.19;5076969;28;723;-41
2022/02/22 10:54:58;;;;;;;;;;;;;;;25.73;26.24;99634.91;5074958;28;770;-41
2022/02/22 10:57:23;;;;;;;;;;;;;;;25.98;26.00;99643.31;5076413;28;825;-42
2022/02/22 10:59:48;;;;;;;;;;;;;;;26.13;26.03;99647.69;5074981;28;806;-42
2022/02/22 11:02:14;;;;;;;;;;;;;;;26.35;26.13;99647.56;5074833;28;1893;-41
2022/02/22 11:04:40;;;;;;;;;;;;;;;26.25;26.20;99656.88;5075227;28;1187;-41
2022/02/22 11:07:06;;;;;;;;;;;;;;;26.17;25.97;99657.84;5075424;28;983;-41
2022/02/22 11:09:31;;;;;;;;;;;;;;;26.13;26.17;99653.91;5074018;28;1108;-42
2022/02/22 11:12:04;;;;;;;;;;;;;;;25.97;26.42;99655.13;5075053;28;957;-41
2022/02/22 11:14:30;;;;;;;;;;;;;;;26.09;26.25;99654.53;5075222;28;944;-42
2022/02/22 11:16:58;;;;;;;;;;;;;;;26.04;25.88;99650.56;5068546;28;829;-41
2022/02/22 11:19:39;;;;;;;;;;;;;;;26.15;26.03;99643.78;5075957;28;837;-41
2022/02/22 11:22:10;;;;;;;;;;;;;;;26.34;25.98;99646.72;5076289;28;1897;-41
2022/02/22 11:24:45;;;;;;;;;;;;;;;26.27;26.08;99646.72;5075808;28;892;-42
2022/02/22 11:27:10;;;;;;;;;;;;;;;26.13;26.27;99645.00;5075900;28;849;-42
2022/02/22 11:29:36;;;;;;;;;;;;;;;26.29;26.11;99641.94;5075418;28;901;-41
2022/02/22 11:32:03;;;;;;;;;;;;;;;26.28;26.14;99648.38;5070517;28;1066;-42
2022/02/22 11:34:38;;;;;;;;;;;;;;;26.24;25.75;99647.09;5075670;28;1479;-45
2022/02/22 11:37:04;;;;;;;;;;;;;;;26.49;25.93;99643.03;5075514;28;1479;-44
2022/02/22 11:39:30;;;;;;;;;;;;;;;26.80;25.80;99633.50;5075212;28;1340;-47
2022/02/22 11:41:55;;;;;;;;;;;;;;;26.71;25.91;99637.44;5070176;28;1295;-44
2022/02/22 11:44:21;;;;;;;;;;;;;;;26.66;26.45;99635.34;5069960;28;1977;-41
2022/02/22 11:46:52;;;;;;;;;;;;;;;26.60;26.18;99628.09;5062661;28;1553;-43
2022/02/22 11:49:23;;;;;;;;;;;;;;;26.32;26.67;99623.69;5072267;28;1259;-43
2022/02/22 11:51:49;;;;;;;;;;;;;;;26.40;26.58;99626.22;5073565;28;1562;-43
2022/02/22 11:54:32;;;;;;;;;;;;;;;26.51;26.52;99630.16;5072616;28;1392;-42
2022/02/22 11:57:07;;;;;;;;;;;;;;;26.82;26.21;99626.03;5073423;28;1387;-42
2022/02/22 11:59:53;;;;;;;;;;;;;;;26.98;26.15;99622.06;5071832;28;1356;-42
2022/02/22 12:02:31;;;;;;;;;;;;;;;26.65;26.54;99617.53;5070095;28;1897;-44
2022/02/22 12:04:57;;;;;;;;;;;;;;;26.58;26.71;99622.06;5073836;28;1400;-43
2022/02/22 12:07:32;;;;;;;;;;;;;;;26.92;26.46;99625.59;5067421;28;1360;-43
2022/02/22 12:09:58;;;;;;;;;;;;;;;26.81;26.82;99628.94;5066050;28;1726;-41
2022/02/22 12:12:24;;;;;;;;;;;;;;;26.63;27.43;99631.22;5072137;28;1369;-42
2022/02/22 12:14:53;;;;;;;;;;;;;;;26.79;27.01;99629.16;5075404;28;1427;-42
2022/02/22 12:17:19;;;;;;;;;;;;;;;26.94;26.77;99634.34;5074695;28;1265;-42
2022/02/22 12:19:48;;;;;;;;;;;;;;;27.04;26.45;99627.69;5077550;28;1518;-43
2022/02/22 12:22:15;;;;;;;;;;;;;;;27.25;26.34;99627.44;5076944;28;1902;-43
2022/02/22 12:24:41;;;;;;;;;;;;;;;27.01;27.29;99634.28;5093929;28;1348;-41
2022/02/22 12:27:10;;;;;;;;;;;;;;;26.94;27.89;99634.34;5072755;28;1562;-42
2022/02/22 12:29:35;;;;;;;;;;;;;;;27.38;27.86;99641.94;5073448;28;1293;-41
2022/02/22 12:32:02;;;;;;;;;;;;;;;27.11;27.11;99639.31;5070768;28;1550;-43
2022/02/22 12:34:29;;;;;;;;;;;;;;;27.14;27.30;99647.81;5077420;28;1266;-41
2022/02/22 12:36:55;;;;;;;;;;;;;;;27.38;28.00;99653.59;5075711;28;1337;-44
2022/02/22 12:39:21;;;;;;;;;;;;;;;27.20;27.40;99661.50;5075410;28;1289;-38
2022/02/22 12:41:49;;;;;;;;;;;;;;;26.99;27.87;99648.00;5075049;28;1285;-33
2022/02/22 12:44:15;;;;;;;;;;;;;;;26.38;28.79;99652.53;5068506;28;1947;-33
2022/02/22 12:46:41;;;;;;;;;;;;;;;25.56;27.75;99652.22;5076447;28;1261;-34
2022/02/22 12:49:10;;;;;;;;;;;;;;;25.50;29.08;99647.63;5070736;28;1619;-43
2022/02/22 12:51:35;;;;;;;;;;;;;;;26.05;29.53;99648.72;5070611;28;1787;-42
2022/02/22 12:54:05;;;;;;;;;;;;;;;26.08;29.67;99653.69;5076022;28;1606;-43
2022/02/22 12:56:31;;;;;;;;;;;;;;;25.94;29.79;99652.84;5073588;28;1370;-43